createdAt,value
2022-11-15T00:01:18.774Z,101662.88
2022-11-15T00:03:47.105Z,101649.66
2022-11-15T00:06:15.028Z,101608.50
2022-11-15T00:08:43.105Z,101643.38
2022-11-15T00:11:13.731Z,101627.09
2022-11-15T00:13:41.717Z,101638.81
2022-11-15T00:16:11.515Z,101635.88
2022-11-15T00:18:40.312Z,101628.38
2022-11-15T00:21:10.350Z,101598.38
2022-11-15T00:23:38.485Z,101589.72
2022-11-15T00:26:06.857Z,101633.84
2022-11-15T00:28:35.146Z,101632.13
2022-11-15T00:31:04.118Z,101608.09
2022-11-15T00:33:33.783Z,101628.63
2022-11-15T00:36:03.523Z,101631.88
2022-11-15T00:38:34.739Z,101631.97
2022-11-15T00:41:08.881Z,101619.09
2022-11-15T00:43:38.252Z,101615.66
2022-11-15T00:46:06.284Z,101622.69
2022-11-15T00:48:35.518Z,101634.09
2022-11-15T00:51:03.867Z,101629.69
2022-11-15T00:53:31.921Z,101601.00
2022-11-15T00:56:00.027Z,101633.13
2022-11-15T00:58:28.353Z,101627.91
2022-11-15T01:00:56.272Z,101557.94
2022-11-15T01:03:24.235Z,101613.88
2022-11-15T01:05:53.575Z,101615.19
2022-11-15T01:08:21.528Z,101644.38
2022-11-15T01:10:49.401Z,101604.09
2022-11-15T01:13:17.367Z,101643.31
2022-11-15T01:15:45.365Z,101640.59
2022-11-15T01:18:13.607Z,101638.72
2022-11-15T01:20:42.872Z,101596.91
2022-11-15T01:23:12.342Z,101633.53
2022-11-15T01:25:40.251Z,101621.53
2022-11-15T01:28:08.328Z,101640.28
2022-11-15T01:30:37.834Z,101621.19
2022-11-15T01:33:05.725Z,101654.78
2022-11-15T01:35:33.897Z,101629.66
2022-11-15T01:38:01.761Z,101623.75
2022-11-15T01:40:32.626Z,101631.59
2022-11-15T01:43:00.528Z,101658.69
2022-11-15T01:45:28.747Z,101631.84
2022-11-15T01:47:57.606Z,101649.88
2022-11-15T01:50:29.606Z,101642.88
2022-11-15T01:52:57.897Z,101639.34
2022-11-15T01:55:30.110Z,101644.41
2022-11-15T01:58:03.580Z,101607.63
2022-11-15T02:00:33.426Z,101631.34
2022-11-15T02:03:01.636Z,101645.78
2022-11-15T02:05:29.490Z,101636.00
2022-11-15T02:07:57.726Z,101584.75
2022-11-15T02:10:26.571Z,101620.66
2022-11-15T02:12:57.131Z,101649.66
2022-11-15T02:15:32.985Z,101631.34
2022-11-15T02:18:13.666Z,101627.75
2022-11-15T02:21:00.718Z,101636.47
2022-11-15T02:23:55.345Z,101645.19
2022-11-15T02:26:45.321Z,101642.50
2022-11-15T02:29:17.066Z,101618.25
2022-11-15T02:31:53.817Z,101643.22
2022-11-15T02:34:30.889Z,101652.75
2022-11-15T02:37:09.458Z,101648.25
2022-11-15T02:39:44.243Z,101643.75
2022-11-15T02:42:37.650Z,101654.81
2022-11-15T02:45:11.618Z,101650.25
2022-11-15T02:47:45.453Z,101648.28
2022-11-15T02:50:16.844Z,101646.31
2022-11-15T02:52:47.561Z,101610.25
2022-11-15T02:55:30.129Z,101629.38
2022-11-15T02:58:14.397Z,101619.16
2022-11-15T03:00:50.630Z,101654.06
2022-11-15T03:03:43.967Z,101662.16
2022-11-15T03:06:25.603Z,101656.59
2022-11-15T03:09:04.590Z,101661.53
2022-11-15T03:11:38.287Z,101659.63
2022-11-15T03:14:18.535Z,101657.03
2022-11-15T03:16:52.513Z,101629.84
2022-11-15T03:19:29.882Z,101647.69
2022-11-15T03:22:00.789Z,101660.34
2022-11-15T03:24:31.819Z,101653.25
2022-11-15T03:27:02.533Z,101635.31
2022-11-15T03:29:35.592Z,101647.97
2022-11-15T03:32:10.065Z,101657.31
2022-11-15T03:34:44.192Z,101662.44
2022-11-15T03:37:15.562Z,101666.66
2022-11-15T03:39:44.540Z,101673.56
2022-11-15T03:42:23.884Z,101670.06
2022-11-15T03:44:58.528Z,101587.41
2022-11-15T03:47:31.412Z,101667.44
2022-11-15T03:50:05.034Z,101668.25
2022-11-15T03:52:35.585Z,101637.72
2022-11-15T03:55:06.483Z,101673.38
2022-11-15T03:57:34.445Z,101666.38
2022-11-15T04:00:02.315Z,101675.19
2022-11-15T04:02:30.465Z,101676.88
2022-11-15T04:04:58.503Z,101553.31
2022-11-15T04:07:28.269Z,101597.22
2022-11-15T04:10:06.447Z,101673.28
2022-11-15T04:12:36.631Z,101677.50
2022-11-15T04:15:09.964Z,101673.09
2022-11-15T04:17:40.699Z,101673.72
2022-11-15T04:20:29.166Z,101678.84
2022-11-15T04:23:17.659Z,101679.75
2022-11-15T04:25:47.080Z,101682.44
2022-11-15T04:28:15.078Z,101683.44
2022-11-15T04:30:43.104Z,101694.94
2022-11-15T04:33:11.143Z,101687.28
2022-11-15T04:35:39.316Z,101685.50
2022-11-15T04:38:09.284Z,101682.09
2022-11-15T04:40:37.855Z,101628.19
2022-11-15T04:43:06.077Z,101587.59
2022-11-15T04:45:34.113Z,101689.09
2022-11-15T04:48:02.048Z,101690.00
2022-11-15T04:50:29.904Z,101619.81
2022-11-15T04:52:57.902Z,101688.81
2022-11-15T04:55:27.397Z,101689.09
2022-11-15T04:58:02.377Z,101617.50
2022-11-15T05:00:31.640Z,101689.09
2022-11-15T05:03:17.333Z,101692.50
2022-11-15T05:05:45.619Z,101661.78
2022-11-15T05:08:13.489Z,101695.81
2022-11-15T05:10:42.782Z,101696.72
2022-11-15T05:13:10.807Z,101695.91
2022-11-15T05:15:38.771Z,101664.28
2022-11-15T05:18:07.110Z,101698.63
2022-11-15T05:20:35.466Z,101694.13
2022-11-15T05:23:03.355Z,101690.00
2022-11-15T05:25:31.598Z,101693.31
2022-11-15T05:28:01.003Z,101699.34
2022-11-15T05:30:28.920Z,101628.53
2022-11-15T05:32:57.295Z,101672.94
2022-11-15T05:35:32.631Z,101656.31
2022-11-15T05:38:00.733Z,101701.03
2022-11-15T05:40:29.732Z,101709.66
2022-11-15T05:42:58.407Z,101682.16
2022-11-15T05:45:27.792Z,101573.66
2022-11-15T05:47:58.538Z,101696.72
2022-11-15T05:50:26.940Z,101700.31
2022-11-15T05:53:02.206Z,101708.13
2022-11-15T05:55:33.423Z,101715.94
2022-11-15T05:58:02.211Z,101717.84
2022-11-15T06:00:31.498Z,101714.31
2022-11-15T06:02:59.585Z,101699.50
2022-11-15T06:05:28.913Z,101722.13
2022-11-15T06:07:59.669Z,101727.44
2022-11-15T06:10:27.785Z,101728.34
2022-11-15T06:12:59.933Z,101726.63
2022-11-15T06:15:27.929Z,101704.44
2022-11-15T06:17:59.579Z,101730.41
2022-11-15T06:20:28.572Z,101712.63
2022-11-15T06:23:01.064Z,101718.72
2022-11-15T06:25:30.293Z,101730.41
2022-11-15T06:28:00.316Z,101727.34
2022-11-15T06:30:29.252Z,101734.72
2022-11-15T06:33:06.093Z,101733.00
2022-11-15T06:35:36.536Z,101751.06
2022-11-15T06:38:06.468Z,101727.53
2022-11-15T06:40:36.675Z,101749.28
2022-11-15T06:43:05.638Z,101753.94
2022-11-15T06:45:34.232Z,101760.16
2022-11-15T06:48:02.446Z,101756.81
2022-11-15T06:50:31.725Z,101740.66
2022-11-15T06:53:04.140Z,101761.41
2022-11-15T06:55:32.158Z,101771.84
2022-11-15T06:58:00.209Z,101770.22
2022-11-15T07:00:28.272Z,101754.03
2022-11-15T07:02:56.184Z,101768.50
2022-11-15T07:05:24.067Z,101761.59
2022-11-15T07:07:57.718Z,101762.94
2022-11-15T07:10:26.620Z,101764.09
2022-11-15T07:12:55.318Z,101766.72
2022-11-15T07:15:25.712Z,101756.75
2022-11-15T07:17:53.828Z,101778.94
2022-11-15T07:20:21.737Z,101776.41
2022-11-15T07:22:50.122Z,101774.53
2022-11-15T07:25:19.348Z,101783.44
2022-11-15T07:27:56.873Z,101785.22
2022-11-15T07:30:25.647Z,101775.53
2022-11-15T07:32:55.315Z,101774.53
2022-11-15T07:35:23.556Z,101776.25
2022-11-15T07:37:58.410Z,101766.72
2022-11-15T07:40:28.738Z,101766.81
2022-11-15T07:43:01.780Z,101772.72
2022-11-15T07:45:29.923Z,101782.97
2022-11-15T07:47:58.539Z,101775.59
2022-11-15T07:50:26.596Z,101780.63
2022-11-15T07:52:58.449Z,101779.81
2022-11-15T07:55:30.702Z,101786.13
2022-11-15T07:58:03.909Z,101783.69
2022-11-15T08:00:31.960Z,101784.78
2022-11-15T08:03:07.039Z,101780.47
2022-11-15T08:05:35.477Z,101793.03
2022-11-15T08:08:03.393Z,101795.81
2022-11-15T08:10:39.282Z,101791.50
2022-11-15T08:13:11.284Z,101790.63
2022-11-15T08:15:39.853Z,101794.47
2022-11-15T08:18:13.688Z,101795.66
2022-11-15T08:20:41.791Z,101796.66
2022-11-15T08:23:10.248Z,101796.28
2022-11-15T08:25:39.765Z,101786.47
2022-11-15T08:28:09.662Z,101800.50
2022-11-15T08:30:42.676Z,101814.16
2022-11-15T08:33:13.655Z,101818.09
2022-11-15T08:35:41.863Z,101780.50
2022-11-15T08:38:09.775Z,101745.59
2022-11-15T08:40:39.492Z,101794.09
2022-11-15T08:43:08.041Z,101801.56
2022-11-15T08:45:37.132Z,101810.22
2022-11-15T08:48:05.909Z,101800.50
2022-11-15T08:50:33.792Z,101807.09
2022-11-15T08:53:07.832Z,101790.41
2022-11-15T08:55:40.366Z,101804.06
2022-11-15T08:58:08.527Z,101828.66
2022-11-15T09:00:36.435Z,101825.19
2022-11-15T09:03:06.764Z,101826.19
2022-11-15T09:05:37.794Z,101834.91
2022-11-15T09:08:19.150Z,101841.75
2022-11-15T09:10:56.054Z,101835.63
2022-11-15T09:13:24.510Z,101849.31
2022-11-15T09:15:52.379Z,101840.34
2022-11-15T09:18:22.437Z,101829.03
2022-11-15T09:20:50.436Z,101848.38
2022-11-15T09:23:18.377Z,101845.59
2022-11-15T09:25:46.471Z,101828.44
2022-11-15T09:28:15.901Z,101834.28
2022-11-15T09:30:43.775Z,101812.19
2022-11-15T09:33:12.813Z,101841.38
2022-11-15T09:35:41.975Z,101847.50
2022-11-15T09:38:10.029Z,101844.16
2022-11-15T09:40:40.073Z,101844.97
2022-11-15T09:43:28.301Z,101860.63
2022-11-15T09:46:08.523Z,101852.81
2022-11-15T09:48:48.464Z,101845.78
2022-11-15T09:51:23.955Z,101864.13
2022-11-15T09:54:30.834Z,101863.50
2022-11-15T09:56:47.006Z,101859.00
2022-11-15T09:59:44.626Z,101847.59
2022-11-15T10:02:26.413Z,101847.75
2022-11-15T10:04:56.123Z,101801.03
2022-11-15T10:07:30.455Z,101840.47
2022-11-15T10:10:04.389Z,101764.91
2022-11-15T10:12:33.752Z,101866.47
2022-11-15T10:15:06.291Z,101847.38
2022-11-15T10:17:52.995Z,101858.34
2022-11-15T10:20:24.977Z,101780.25
2022-11-15T10:22:55.416Z,101864.56
2022-11-15T10:25:25.879Z,101816.53
2022-11-15T10:27:58.212Z,101859.22
2022-11-15T10:30:34.492Z,101854.34
2022-11-15T10:33:14.326Z,101848.22
2022-11-15T10:35:42.592Z,101859.38
2022-11-15T10:38:12.484Z,101843.28
2022-11-15T10:40:44.826Z,101854.00
2022-11-15T10:43:19.916Z,101821.97
2022-11-15T10:45:51.038Z,101860.63
2022-11-15T10:48:25.027Z,101862.50
2022-11-15T10:50:54.979Z,101839.78
2022-11-15T10:53:28.256Z,101794.88
2022-11-15T10:56:03.885Z,101857.66
2022-11-15T10:58:36.762Z,101851.56
2022-11-15T11:01:15.351Z,101843.56
2022-11-15T11:03:45.136Z,101846.88
2022-11-15T11:06:16.092Z,101848.78
2022-11-15T11:08:57.395Z,101844.63
2022-11-15T11:11:25.629Z,101803.19
2022-11-15T11:13:54.625Z,101850.00
2022-11-15T11:16:44.675Z,101858.09
2022-11-15T11:19:36.798Z,101852.53
2022-11-15T11:22:14.461Z,101854.34
2022-11-15T11:24:49.730Z,101824.34
2022-11-15T11:27:32.135Z,101862.00
2022-11-15T11:30:08.305Z,101862.97
2022-11-15T11:33:04.073Z,101863.63
2022-11-15T11:35:37.947Z,101865.06
2022-11-15T11:38:24.339Z,101833.63
2022-11-15T11:41:04.426Z,101859.03
2022-11-15T11:43:43.978Z,101862.47
2022-11-15T11:46:38.792Z,101863.09
2022-11-15T11:49:12.461Z,101853.31
2022-11-15T11:51:44.295Z,101828.94
2022-11-15T11:54:17.045Z,101860.31
2022-11-15T11:56:47.253Z,101854.03
2022-11-15T11:59:25.579Z,101805.16
2022-11-15T12:01:53.937Z,101873.91
2022-11-15T12:04:31.530Z,101830.06
2022-11-15T12:07:05.235Z,101864.75
2022-11-15T12:09:38.957Z,101862.88
2022-11-15T12:12:13.312Z,101864.41
2022-11-15T12:14:46.139Z,101850.19
2022-11-15T12:17:15.506Z,101868.09
2022-11-15T12:19:44.855Z,101863.31
2022-11-15T12:22:22.053Z,101852.53
2022-11-15T12:25:00.548Z,101866.84
2022-11-15T12:27:35.751Z,101860.72
2022-11-15T12:30:10.793Z,101864.50
2022-11-15T12:32:42.194Z,101861.25
2022-11-15T12:35:25.224Z,101859.63
2022-11-15T12:37:56.482Z,101863.94
2022-11-15T12:40:35.785Z,101854.41
2022-11-15T12:43:42.504Z,101846.31
2022-11-15T12:46:20.929Z,101862.16
2022-11-15T12:48:57.755Z,101821.53
2022-11-15T12:52:08.019Z,101856.50
2022-11-15T12:55:04.117Z,101866.03
2022-11-15T12:57:43.527Z,101864.41
2022-11-15T13:00:44.813Z,101861.72
2022-11-15T13:03:27.303Z,101850.09
2022-11-15T13:06:27.827Z,101856.56
2022-11-15T13:08:55.671Z,101847.69
2022-11-15T13:11:54.766Z,101855.50
2022-11-15T13:14:47.458Z,101845.97
2022-11-15T13:17:37.297Z,101830.50
2022-11-15T13:20:20.830Z,101829.78
2022-11-15T13:22:53.219Z,101848.13
2022-11-15T13:25:32.561Z,101838.44
2022-11-15T13:28:07.828Z,101844.19
2022-11-15T13:30:36.213Z,101844.19
2022-11-15T13:33:12.021Z,101838.44
2022-11-15T13:35:42.872Z,101823.69
2022-11-15T13:38:21.290Z,101857.69
2022-11-15T13:40:49.284Z,101829.38
2022-11-15T13:43:33.875Z,101856.97
2022-11-15T13:46:07.693Z,101780.00
2022-11-15T13:48:35.982Z,101841.84
2022-11-15T13:51:07.302Z,101859.47
2022-11-15T13:53:37.335Z,101867.72
2022-11-15T13:56:05.571Z,101867.38
2022-11-15T13:58:35.440Z,101863.03
2022-11-15T14:01:05.685Z,101876.34
2022-11-15T14:03:35.929Z,101860.06
2022-11-15T14:06:08.747Z,101809.91
2022-11-15T14:08:37.639Z,101878.28
2022-11-15T14:11:11.972Z,101879.91
2022-11-15T14:13:41.286Z,101885.09
2022-11-15T14:16:17.212Z,101888.53
2022-11-15T14:18:48.035Z,101888.84
2022-11-15T14:21:16.218Z,101883.34
2022-11-15T14:23:44.361Z,101893.53
2022-11-15T14:26:29.269Z,101855.56
2022-11-15T14:28:59.551Z,101896.13
2022-11-15T14:31:27.663Z,101878.06
2022-11-15T14:33:55.592Z,101895.97
2022-11-15T14:36:23.905Z,101895.97
2022-11-15T14:38:52.124Z,101892.44
2022-11-15T14:41:22.612Z,101891.56
2022-11-15T14:43:51.306Z,101887.56
2022-11-15T14:46:21.050Z,101892.25
2022-11-15T14:48:48.917Z,101897.28
2022-11-15T14:51:19.067Z,101892.78
2022-11-15T14:53:47.831Z,101883.59
2022-11-15T14:56:17.211Z,101806.91
2022-11-15T14:58:45.328Z,101889.50
2022-11-15T15:01:15.972Z,101900.31
2022-11-15T15:03:46.122Z,101901.91
2022-11-15T15:06:17.956Z,101893.09
2022-11-15T15:08:46.576Z,101883.22
2022-11-15T15:11:18.815Z,101851.19
2022-11-15T15:13:46.700Z,101890.59
2022-11-15T15:16:14.568Z,101908.03
2022-11-15T15:18:42.694Z,101905.31
2022-11-15T15:21:22.728Z,101888.41
2022-11-15T15:23:51.059Z,101872.81
2022-11-15T15:26:19.742Z,101906.75
2022-11-15T15:28:49.609Z,101882.94
2022-11-15T15:31:17.979Z,101904.47
2022-11-15T15:33:46.414Z,101894.47
2022-11-15T15:36:20.489Z,101907.28
2022-11-15T15:38:48.392Z,101870.63
2022-11-15T15:41:18.117Z,101909.28
2022-11-15T15:43:46.231Z,101903.97
2022-11-15T15:46:16.279Z,101891.25
2022-11-15T15:48:44.800Z,101912.06
2022-11-15T15:51:19.595Z,101914.59
2022-11-15T15:53:51.584Z,101900.75
2022-11-15T15:56:19.560Z,101902.06
2022-11-15T15:58:47.464Z,101925.69
2022-11-15T16:01:15.538Z,101918.69
2022-11-15T16:03:43.571Z,101898.38
2022-11-15T16:06:35.622Z,101904.78
2022-11-15T16:09:14.991Z,101900.47
2022-11-15T16:11:43.693Z,101898.66
2022-11-15T16:14:11.916Z,101905.56
2022-11-15T16:16:40.364Z,101909.00
2022-11-15T16:19:08.443Z,101898.84
2022-11-15T16:21:36.600Z,101922.09
2022-11-15T16:24:06.355Z,101885.25
2022-11-15T16:26:37.893Z,101912.78
2022-11-15T16:29:07.930Z,101903.44
2022-11-15T16:31:35.969Z,101924.09
2022-11-15T16:34:04.160Z,101915.19
2022-11-15T16:36:35.595Z,101928.31
2022-11-15T16:39:05.448Z,101915.69
2022-11-15T16:41:33.845Z,101935.91
2022-11-15T16:44:03.890Z,101933.50
2022-11-15T16:46:31.872Z,101935.31
2022-11-15T16:48:59.821Z,101938.81
2022-11-15T16:51:27.814Z,101939.72
2022-11-15T16:53:55.823Z,101936.22
2022-11-15T16:56:27.993Z,101878.84
2022-11-15T16:58:55.932Z,101949.31
2022-11-15T17:01:26.306Z,101942.31
2022-11-15T17:03:54.828Z,101943.91
2022-11-15T17:06:23.390Z,101923.97
2022-11-15T17:08:51.579Z,101942.63
2022-11-15T17:11:22.093Z,101952.63
2022-11-15T17:13:51.322Z,101937.91
2022-11-15T17:16:19.999Z,101952.34
2022-11-15T17:18:52.503Z,101922.50
2022-11-15T17:21:22.520Z,101934.91
2022-11-15T17:23:50.496Z,101930.09
2022-11-15T17:26:29.427Z,101951.31
2022-11-15T17:29:01.715Z,101951.13
2022-11-15T17:31:33.798Z,101956.22
2022-11-15T17:34:02.907Z,101953.41
2022-11-15T17:36:31.233Z,101933.69
2022-11-15T17:39:00.016Z,101929.31
2022-11-15T17:41:28.644Z,101953.41
2022-11-15T17:43:59.053Z,101945.63
2022-11-15T17:46:29.400Z,101940.91
2022-11-15T17:48:58.539Z,101961.41
2022-11-15T17:51:26.912Z,101931.19
2022-11-15T17:53:55.069Z,101935.69
2022-11-15T17:56:25.741Z,101953.81
2022-11-15T17:58:55.692Z,101953.00
2022-11-15T18:01:25.713Z,101951.31
2022-11-15T18:03:56.518Z,101939.19
2022-11-15T18:06:26.193Z,101898.28
2022-11-15T18:08:56.753Z,101953.13
2022-11-15T18:11:26.624Z,101942.81
2022-11-15T18:13:57.843Z,101942.91
2022-11-15T18:16:27.577Z,101942.91
2022-11-15T18:18:56.961Z,101930.69
2022-11-15T18:21:26.693Z,101936.19
2022-11-15T18:23:56.965Z,101910.09
2022-11-15T18:26:27.717Z,101924.59
2022-11-15T18:28:57.266Z,101941.50
2022-11-15T18:31:27.151Z,101940.81
2022-11-15T18:33:57.061Z,101946.00
2022-11-15T18:36:26.583Z,101943.31
2022-11-15T18:38:56.585Z,101950.13
2022-11-15T18:41:28.476Z,101942.22
2022-11-15T18:43:56.960Z,101942.72
2022-11-15T18:46:27.019Z,101951.63
2022-11-15T18:48:56.943Z,101945.63
2022-11-15T18:51:26.525Z,101948.22
2022-11-15T18:53:54.934Z,101955.22
2022-11-15T18:56:23.931Z,101946.22
2022-11-15T18:58:53.419Z,101955.31
2022-11-15T19:01:23.260Z,101962.31
2022-11-15T19:03:52.799Z,101953.63
2022-11-15T19:06:23.676Z,101958.03
2022-11-15T19:08:54.921Z,101956.31
2022-11-15T19:11:25.616Z,101956.22
2022-11-15T19:13:55.733Z,101929.91
2022-11-15T19:16:24.531Z,101965.81
2022-11-15T19:18:55.021Z,101954.22
2022-11-15T19:21:25.678Z,101958.91
2022-11-15T19:23:54.327Z,101963.22
2022-11-15T19:26:23.393Z,101970.13
2022-11-15T19:28:53.455Z,101958.53
2022-11-15T19:31:23.633Z,101963.94
2022-11-15T19:33:52.745Z,101977.94
2022-11-15T19:36:23.053Z,101969.22
2022-11-15T19:38:52.696Z,101975.34
2022-11-15T19:41:22.280Z,101985.75
2022-11-15T19:43:50.984Z,101967.13
2022-11-15T19:46:21.918Z,101979.75
2022-11-15T19:48:50.426Z,101986.75
2022-11-15T19:51:21.666Z,101974.34
2022-11-15T19:53:50.525Z,101984.25
2022-11-15T19:56:21.055Z,101958.53
2022-11-15T19:58:52.361Z,101971.22
2022-11-15T20:01:22.476Z,101968.63
2022-11-15T20:03:54.144Z,101975.63
2022-11-15T20:06:24.035Z,101973.72
2022-11-15T20:08:52.008Z,101964.22
2022-11-15T20:11:21.627Z,101929.69
2022-11-15T20:13:50.239Z,101949.31
2022-11-15T20:16:20.396Z,101949.31
2022-11-15T20:18:49.003Z,101955.50
2022-11-15T20:21:17.548Z,101967.13
2022-11-15T20:23:45.756Z,101953.22
2022-11-15T20:26:16.007Z,101945.09
2022-11-15T20:28:45.854Z,101956.50
2022-11-15T20:31:14.043Z,101979.72
2022-11-15T20:33:42.459Z,101970.13
2022-11-15T20:36:13.494Z,101967.91
2022-11-15T20:38:41.782Z,101984.03
2022-11-15T20:41:11.869Z,101967.72
2022-11-15T20:43:43.345Z,101965.91
2022-11-15T20:46:14.102Z,101943.28
2022-11-15T20:48:42.652Z,101972.91
2022-11-15T20:51:13.180Z,101982.13
2022-11-15T20:53:42.109Z,101981.22
2022-11-15T20:56:12.944Z,101983.84
2022-11-15T20:58:40.888Z,101968.63
2022-11-15T21:01:11.829Z,101960.50
2022-11-15T21:03:41.246Z,101957.72
2022-11-15T21:06:09.664Z,101990.84
2022-11-15T21:08:51.557Z,101985.53
2022-11-15T21:11:37.211Z,101991.63
2022-11-15T21:14:09.260Z,101971.13
2022-11-15T21:16:37.815Z,101976.63
2022-11-15T21:19:07.779Z,101979.94
2022-11-15T21:21:37.001Z,101989.44
2022-11-15T21:24:05.555Z,101959.50
2022-11-15T21:26:33.598Z,101978.41
2022-11-15T21:29:01.679Z,101993.53
2022-11-15T21:31:29.890Z,101955.31
2022-11-15T21:33:57.885Z,101920.47
2022-11-15T21:36:27.218Z,101948.09
2022-11-15T21:38:55.330Z,101988.19
2022-11-15T21:41:23.445Z,101981.19
2022-11-15T21:43:51.434Z,102007.13
2022-11-15T21:46:19.504Z,102008.81
2022-11-15T21:48:47.655Z,101985.69
2022-11-15T21:51:15.724Z,101982.31
2022-11-15T21:53:45.012Z,101995.91
2022-11-15T21:56:13.159Z,101943.38
2022-11-15T21:58:41.177Z,101959.78
2022-11-15T22:01:29.024Z,102001.03
2022-11-15T22:03:57.112Z,102004.53
2022-11-15T22:06:25.341Z,102007.03
2022-11-15T22:08:54.756Z,101946.38
2022-11-15T22:11:22.772Z,102004.69
2022-11-15T22:13:50.682Z,102007.41
2022-11-15T22:16:18.712Z,102011.81
2022-11-15T22:18:46.828Z,102010.13
2022-11-15T22:21:16.450Z,102010.13
2022-11-15T22:23:45.033Z,102004.91
2022-11-15T22:26:19.504Z,101947.16
2022-11-15T22:28:51.059Z,102011.72
2022-11-15T22:31:19.029Z,102018.72
2022-11-15T22:33:46.928Z,102010.81
2022-11-15T22:36:14.977Z,102020.41
2022-11-15T22:38:42.893Z,102001.47
2022-11-15T22:41:10.932Z,102007.00
2022-11-15T22:43:40.405Z,102017.81
2022-11-15T22:46:08.620Z,101920.41
2022-11-15T22:48:38.561Z,102023.00
2022-11-15T22:51:07.403Z,102019.00
2022-11-15T22:53:35.501Z,101972.03
2022-11-15T22:56:05.804Z,102024.59
2022-11-15T22:58:34.929Z,102002.00
2022-11-15T23:01:06.330Z,102010.97
2022-11-15T23:03:35.625Z,102012.69
2022-11-15T23:06:05.577Z,102025.31
2022-11-15T23:08:33.786Z,102020.78
2022-11-15T23:11:19.775Z,102016.50
2022-11-15T23:13:47.739Z,102014.69
2022-11-15T23:16:35.559Z,102001.19
2022-11-15T23:19:06.132Z,102015.38
2022-11-15T23:21:53.160Z,102011.59
2022-11-15T23:24:21.751Z,102023.19
2022-11-15T23:26:51.685Z,102023.19
2022-11-15T23:29:21.805Z,102020.69
2022-11-15T23:32:08.464Z,102000.00
2022-11-15T23:34:38.748Z,102018.88
2022-11-15T23:37:08.196Z,102014.47
2022-11-15T23:39:36.040Z,101964.25
2022-11-15T23:42:08.781Z,101964.84
2022-11-15T23:44:37.575Z,102019.56
2022-11-15T23:47:07.019Z,102013.47
2022-11-15T23:49:34.913Z,102013.47
2022-11-15T23:52:02.930Z,101989.28
2022-11-15T23:54:31.206Z,102000.41
2022-11-15T23:56:59.079Z,102003.91
2022-11-15T23:59:27.050Z,101997.06
